Caiabu, Brazil
Current Conditions -  °F | °C
As of 10:00 PM on Friday 19 Dec 2014 (Local Time) from SBDN Reporting Station
Clear Clear  
Wind Chill: 82°   Ceiling: Unl
Heat Index: 85°   Visibility: 6mi
Dew Point: 66°   Wind: 2mph
Humidity: 58%   Direction: 360°N
Pressure: 29.74"   Gusts: NA
Location:  22.01°S, 51.24°W
Report Text: SBDN 200000Z 36002KT CAVOK 28/19 Q1007
Loading
Personal Weather Stations






























Interactive Weather Map New forecast layout! Learn more

10-Day Weather Forecast

Advertisements
Track Severe Weather on mobile